Madison Lake, Minnesota
Current Conditions -  °F | °C
As of 4:15 PM on Monday 20 Oct 2014 (Local Time) from KMKT Reporting Station
Clear Clear  
Wind Chill: 66°   Ceiling: Unl
Heat Index: 66°   Visibility: 10mi
Dew Point: 39°   Wind: 15mph
Humidity: 37%   Direction: 330°NNW
Pressure: 29.99"   Gusts: 18mph
Location:  44.2°N, 93.82°W
Report Text: KMKT 202115Z AUTO 33013G16KT 10SM CLR 19/04 A2999 RMK AO1
Loading
Personal Weather Stations






























Interactive Weather Map
Tropical Storm Tracking
New forecast layout! Learn more

10-Day Weather Forecast

Advertisements
Track Severe Weather on mobile